createdAt,value
2017-02-24T00:00:36.472Z,23.73
2017-02-24T00:01:36.458Z,23.85
2017-02-24T00:02:36.448Z,23.68
2017-02-24T00:03:36.466Z,23.76
2017-02-24T00:04:36.449Z,23.73
2017-02-24T00:05:36.411Z,23.8
2017-02-24T00:06:36.429Z,23.78
2017-02-24T00:07:36.490Z,23.78
2017-02-24T00:08:36.539Z,23.8
2017-02-24T00:09:36.800Z,23.91
2017-02-24T00:10:36.095Z,23.79
2017-02-24T00:11:36.121Z,23.88
2017-02-24T00:12:36.558Z,23.87
2017-02-24T00:13:36.509Z,23.76
2017-02-24T00:14:36.618Z,23.87
2017-02-24T00:15:36.492Z,23.91
2017-02-24T00:16:36.489Z,23.94
2017-02-24T00:17:36.562Z,23.87
2017-02-24T00:18:36.493Z,23.83
2017-02-24T00:19:36.605Z,23.87
2017-02-24T00:20:36.627Z,23.88
2017-02-24T00:21:36.570Z,23.87
2017-02-24T00:22:36.532Z,23.88
2017-02-24T00:23:36.585Z,23.85
2017-02-24T00:24:36.550Z,23.87
2017-02-24T00:25:36.543Z,23.95
2017-02-24T00:26:36.161Z,23.97
2017-02-24T00:27:36.555Z,24
2017-02-24T00:28:36.167Z,24.05
2017-02-24T00:29:36.326Z,23.98
2017-02-24T00:30:36.590Z,24
2017-02-24T00:31:36.599Z,23.94
2017-02-24T00:32:36.598Z,23.88
2017-02-24T00:33:36.756Z,23.93
2017-02-24T00:34:36.599Z,23.98
2017-02-24T00:35:36.275Z,24
2017-02-24T00:36:36.278Z,24
2017-02-24T00:37:36.622Z,24.05
2017-02-24T00:38:36.656Z,23.94
2017-02-24T00:39:36.564Z,24
2017-02-24T00:40:36.250Z,23.98
2017-02-24T00:41:36.699Z,23.93
2017-02-24T00:42:36.707Z,23.88
2017-02-24T00:44:37.279Z,23.88
2017-02-24T00:45:35.963Z,23.9
2017-02-24T00:46:36.733Z,23.94
2017-02-24T00:47:36.799Z,23.93
2017-02-24T00:48:36.008Z,23.91
2017-02-24T00:49:36.323Z,23.91
2017-02-24T00:50:36.806Z,23.93
2017-02-24T00:51:36.764Z,23.84
2017-02-24T00:52:36.374Z,23.9
2017-02-24T00:53:36.778Z,23.83
2017-02-24T00:54:36.745Z,23.78
2017-02-24T00:55:36.800Z,23.9
2017-02-24T00:56:36.749Z,23.83
2017-02-24T00:57:36.812Z,23.88
2017-02-24T00:58:36.763Z,23.9
2017-02-24T00:59:36.820Z,23.95
2017-02-24T01:00:36.453Z,23.94
2017-02-24T01:01:36.795Z,24.06
2017-02-24T01:02:36.844Z,24.03
2017-02-24T01:03:36.846Z,23.98
2017-02-24T01:04:36.471Z,23.93
2017-02-24T01:05:36.077Z,23.83
2017-02-24T01:06:36.883Z,23.85
2017-02-24T01:07:36.882Z,23.83
2017-02-24T01:08:36.831Z,23.93
2017-02-24T01:09:36.897Z,23.91
2017-02-24T01:10:36.501Z,23.91
2017-02-24T01:11:36.858Z,23.85
2017-02-24T01:12:36.574Z,23.88
2017-02-24T01:13:45.807Z,23.83
2017-02-24T01:14:37.201Z,23.98
2017-02-24T01:15:36.974Z,24.02
2017-02-24T01:16:36.539Z,23.95
2017-02-24T01:17:36.899Z,23.9
2017-02-24T01:18:36.898Z,23.93
2017-02-24T01:19:36.660Z,23.83
2017-02-24T01:20:36.138Z,23.91
2017-02-24T01:21:36.926Z,23.85
2017-02-24T01:22:36.984Z,24
2017-02-24T01:23:36.533Z,24.02
2017-02-24T01:24:36.950Z,23.93
2017-02-24T01:25:37.294Z,23.94
2017-02-24T01:26:37.007Z,23.98
2017-02-24T01:27:36.612Z,23.93
2017-02-24T01:28:37.028Z,23.87
2017-02-24T01:29:37.019Z,23.76
2017-02-24T01:30:37.030Z,23.79
2017-02-24T01:31:37.082Z,23.85
2017-02-24T01:32:36.652Z,23.87
2017-02-24T01:33:37.049Z,23.84
2017-02-24T01:34:36.667Z,23.83
2017-02-24T01:35:37.013Z,23.91
2017-02-24T01:36:36.723Z,23.84
2017-02-24T01:37:37.125Z,23.79
2017-02-24T01:38:37.129Z,23.78
2017-02-24T01:39:37.144Z,23.78
2017-02-24T01:40:37.049Z,23.84
2017-02-24T01:41:38.160Z,23.91
2017-02-24T01:42:36.936Z,23.84
2017-02-24T01:44:37.132Z,23.78
2017-02-24T01:45:37.197Z,23.84
2017-02-24T01:46:37.083Z,23.9
2017-02-24T01:47:37.149Z,23.9
2017-02-24T01:48:36.725Z,23.93
2017-02-24T01:49:37.104Z,24
2017-02-24T01:50:37.110Z,24.06
2017-02-24T01:51:37.131Z,23.91
2017-02-24T01:52:37.228Z,23.76
2017-02-24T01:53:37.243Z,23.84
2017-02-24T01:54:37.205Z,23.8
2017-02-24T01:55:37.271Z,23.75
2017-02-24T01:56:37.226Z,23.79
2017-02-24T01:57:37.170Z,23.84
2017-02-24T01:58:37.166Z,23.88
2017-02-24T01:59:36.787Z,23.85
2017-02-24T02:00:37.341Z,23.75
2017-02-24T02:01:37.247Z,23.79
2017-02-24T02:02:37.241Z,23.75
2017-02-24T02:03:37.201Z,23.87
2017-02-24T02:04:37.223Z,23.87
2017-02-24T02:05:37.217Z,23.9
2017-02-24T02:06:37.341Z,23.79
2017-02-24T02:07:36.888Z,23.87
2017-02-24T02:08:37.283Z,23.79
2017-02-24T02:09:36.848Z,23.8
2017-02-24T02:10:36.890Z,23.78
2017-02-24T02:11:37.399Z,23.85
2017-02-24T02:12:38.730Z,23.83
2017-02-24T02:13:37.360Z,23.84
2017-02-24T02:14:37.413Z,23.84
2017-02-24T02:15:37.323Z,23.78
2017-02-24T02:16:37.378Z,23.75
2017-02-24T02:17:36.993Z,23.76
2017-02-24T02:18:37.413Z,23.76
2017-02-24T02:19:37.363Z,23.7
2017-02-24T02:20:37.420Z,23.73
2017-02-24T02:21:37.420Z,23.85
2017-02-24T02:22:37.039Z,23.84
2017-02-24T02:23:37.421Z,23.98
2017-02-24T02:24:37.381Z,23.88
2017-02-24T02:25:37.496Z,23.91
2017-02-24T02:26:37.002Z,23.88
2017-02-24T02:27:37.017Z,23.88
2017-02-24T02:28:37.461Z,23.78
2017-02-24T02:29:37.471Z,23.78
2017-02-24T02:30:37.478Z,23.8
2017-02-24T02:31:37.084Z,23.84
2017-02-24T02:32:37.433Z,23.73
2017-02-24T02:33:37.545Z,23.69
2017-02-24T02:34:37.049Z,23.76
2017-02-24T02:35:37.506Z,23.79
2017-02-24T02:36:37.510Z,23.83
2017-02-24T02:37:37.075Z,23.66
2017-02-24T02:38:37.582Z,23.73
2017-02-24T02:39:37.547Z,23.65
2017-02-24T02:40:37.096Z,23.8
2017-02-24T02:41:37.548Z,23.76
2017-02-24T02:42:37.559Z,23.73
2017-02-24T02:43:37.171Z,23.85
2017-02-24T02:44:37.564Z,23.79
2017-02-24T02:45:36.787Z,23.83
2017-02-24T02:46:37.636Z,23.83
2017-02-24T02:47:37.589Z,23.79
2017-02-24T02:48:37.544Z,23.75
2017-02-24T02:49:37.561Z,23.79
2017-02-24T02:50:37.557Z,23.84
2017-02-24T02:51:37.620Z,23.76
2017-02-24T02:52:37.672Z,23.8
2017-02-24T02:53:37.684Z,23.8
2017-02-24T02:54:37.246Z,23.85
2017-02-24T02:55:37.890Z,23.79
2017-02-24T02:56:37.666Z,23.84
2017-02-24T02:57:37.609Z,23.8
2017-02-24T02:58:37.262Z,23.78
2017-02-24T02:59:37.665Z,23.84
2017-02-24T03:00:37.688Z,23.73
2017-02-24T03:01:37.718Z,23.78
2017-02-24T03:02:37.685Z,23.76
2017-02-24T03:03:37.343Z,23.83
2017-02-24T03:04:37.259Z,23.83
2017-02-24T03:05:37.784Z,23.85
2017-02-24T03:06:37.667Z,23.83
2017-02-24T03:07:37.381Z,23.79
2017-02-24T03:08:37.363Z,23.8
2017-02-24T03:09:37.787Z,23.8
2017-02-24T03:10:37.743Z,23.78
2017-02-24T03:11:37.715Z,23.88
2017-02-24T03:12:37.913Z,23.84
2017-02-24T03:13:37.763Z,23.79
2017-02-24T03:14:37.716Z,23.79
2017-02-24T03:15:37.803Z,23.83
2017-02-24T03:16:37.777Z,23.79
2017-02-24T03:17:38.287Z,23.69
2017-02-24T03:18:37.841Z,23.7
2017-02-24T03:19:37.355Z,23.76
2017-02-24T03:20:37.869Z,23.69
2017-02-24T03:21:37.861Z,23.73
2017-02-24T03:22:37.418Z,23.7
2017-02-24T03:23:37.426Z,23.66
2017-02-24T03:24:37.905Z,23.69
2017-02-24T03:25:37.408Z,23.69
2017-02-24T03:26:37.795Z,23.73
2017-02-24T03:27:37.826Z,23.83
2017-02-24T03:28:37.836Z,23.79
2017-02-24T03:29:37.877Z,23.76
2017-02-24T03:30:38.030Z,23.84
2017-02-24T03:31:37.869Z,23.8
2017-02-24T03:32:37.910Z,23.8
2017-02-24T03:33:37.851Z,23.79
2017-02-24T03:34:37.901Z,23.69
2017-02-24T03:35:37.921Z,23.68
2017-02-24T03:36:37.569Z,23.58
2017-02-24T03:37:37.970Z,23.57
2017-02-24T03:38:37.983Z,23.63
2017-02-24T03:39:37.543Z,23.54
2017-02-24T03:40:37.938Z,23.61
2017-02-24T03:41:37.943Z,23.61
2017-02-24T03:42:37.901Z,23.55
2017-02-24T03:43:52.422Z,23.6
2017-02-24T03:44:37.914Z,23.65
2017-02-24T03:45:37.933Z,23.69
2017-02-24T03:46:38.077Z,23.65
2017-02-24T03:47:38.040Z,23.72
2017-02-24T03:48:38.006Z,23.8
2017-02-24T03:49:37.951Z,23.6
2017-02-24T03:50:38.002Z,23.6
2017-02-24T03:52:38.599Z,23.69
2017-02-24T03:53:38.104Z,23.68
2017-02-24T03:54:38.165Z,23.58
2017-02-24T03:55:37.671Z,23.69
2017-02-24T03:56:37.586Z,23.65
2017-02-24T03:57:37.979Z,23.73
2017-02-24T03:58:37.992Z,23.57
2017-02-24T03:59:38.044Z,23.68
2017-02-24T04:00:38.010Z,23.61
2017-02-24T04:01:38.058Z,23.6
2017-02-24T04:02:37.723Z,23.63
2017-02-24T04:03:38.069Z,23.63
2017-02-24T04:04:38.123Z,23.63
2017-02-24T04:05:37.635Z,23.63
2017-02-24T04:06:37.738Z,23.72
2017-02-24T04:07:38.446Z,23.66
2017-02-24T04:08:38.153Z,23.78
2017-02-24T04:09:38.061Z,23.72
2017-02-24T04:10:38.066Z,23.63
2017-02-24T04:11:38.144Z,23.54
2017-02-24T04:12:38.071Z,23.58
2017-02-24T04:13:52.666Z,23.68
2017-02-24T04:14:38.138Z,23.65
2017-02-24T04:15:38.398Z,23.63
2017-02-24T04:16:39.267Z,23.51
2017-02-24T04:17:38.109Z,23.61
2017-02-24T04:18:38.120Z,23.55
2017-02-24T04:19:37.782Z,23.79
2017-02-24T04:20:37.830Z,23.73
2017-02-24T04:21:38.185Z,23.65
2017-02-24T04:22:38.145Z,23.66
2017-02-24T04:23:38.146Z,23.54
2017-02-24T04:24:37.370Z,23.58
2017-02-24T04:25:39.366Z,23.63
2017-02-24T04:26:37.767Z,23.61
2017-02-24T04:27:38.632Z,23.63
2017-02-24T04:28:38.198Z,23.66
2017-02-24T04:29:38.294Z,23.68
2017-02-24T04:30:38.201Z,23.6
2017-02-24T04:31:38.297Z,23.6
2017-02-24T04:32:38.503Z,23.57
2017-02-24T04:33:38.277Z,23.6
2017-02-24T04:34:37.869Z,23.58
2017-02-24T04:35:37.880Z,23.58
2017-02-24T04:36:38.937Z,23.73
2017-02-24T04:37:38.295Z,23.73
2017-02-24T04:38:38.298Z,23.65
2017-02-24T04:39:38.305Z,23.69
2017-02-24T04:40:38.258Z,23.68
2017-02-24T04:41:38.265Z,23.63
2017-02-24T04:42:38.430Z,23.68
2017-02-24T04:43:57.485Z,23.63
2017-02-24T04:44:37.894Z,23.66
2017-02-24T04:45:38.313Z,23.57
2017-02-24T04:46:37.924Z,23.61
2017-02-24T04:47:38.662Z,23.69
2017-02-24T04:48:37.909Z,23.68
2017-02-24T04:49:38.269Z,23.7
2017-02-24T04:50:38.383Z,23.69
2017-02-24T04:51:38.007Z,23.61
2017-02-24T04:52:38.368Z,23.61
2017-02-24T04:53:38.395Z,23.68
2017-02-24T04:54:38.104Z,23.55
2017-02-24T04:55:37.957Z,23.68
2017-02-24T04:56:38.419Z,23.65
2017-02-24T04:57:38.372Z,23.61
2017-02-24T04:58:39.096Z,23.63
2017-02-24T04:59:38.056Z,23.61
2017-02-24T05:00:38.442Z,23.76
2017-02-24T05:01:38.458Z,23.78
2017-02-24T05:02:38.456Z,23.54
2017-02-24T05:03:38.461Z,23.63
2017-02-24T05:04:38.071Z,23.65
2017-02-24T05:05:38.425Z,23.61
2017-02-24T05:06:38.033Z,23.57
2017-02-24T05:07:38.088Z,23.65
2017-02-24T05:08:38.152Z,23.57
2017-02-24T05:09:38.571Z,23.54
2017-02-24T05:10:38.485Z,23.66
2017-02-24T05:11:38.473Z,23.66
2017-02-24T05:12:38.523Z,23.63
2017-02-24T05:13:39.480Z,23.68
2017-02-24T05:14:38.544Z,23.69
2017-02-24T05:15:38.542Z,23.61
2017-02-24T05:16:38.552Z,23.54
2017-02-24T05:17:38.155Z,23.68
2017-02-24T05:18:38.159Z,23.63
2017-02-24T05:19:38.537Z,23.66
2017-02-24T05:20:38.533Z,23.57
2017-02-24T05:21:38.684Z,23.63
2017-02-24T05:22:39.424Z,23.66
2017-02-24T05:23:38.602Z,23.55
2017-02-24T05:24:39.162Z,23.55
2017-02-24T05:25:37.870Z,23.66
2017-02-24T05:26:38.570Z,23.61
2017-02-24T05:27:38.579Z,23.57
2017-02-24T05:28:38.183Z,23.63
2017-02-24T05:29:38.390Z,23.55
2017-02-24T05:30:38.595Z,23.66
2017-02-24T05:31:38.647Z,23.6
2017-02-24T05:32:38.653Z,23.66
2017-02-24T05:33:39.715Z,23.61
2017-02-24T05:34:38.221Z,23.53
2017-02-24T05:35:38.875Z,23.69
2017-02-24T05:36:38.280Z,23.6
2017-02-24T05:37:37.895Z,23.68
2017-02-24T05:38:38.295Z,23.61
2017-02-24T05:39:38.259Z,23.66
2017-02-24T05:40:38.705Z,23.66
2017-02-24T05:41:38.713Z,23.65
2017-02-24T05:42:39.676Z,23.6
2017-02-24T05:43:38.336Z,23.66
2017-02-24T05:44:39.335Z,23.57
2017-02-24T05:45:38.351Z,23.63
2017-02-24T05:46:38.495Z,23.66
2017-02-24T05:47:38.813Z,23.66
2017-02-24T05:48:38.761Z,23.61
2017-02-24T05:49:38.716Z,23.69
2017-02-24T05:50:38.784Z,23.73
2017-02-24T05:51:38.398Z,23.63
2017-02-24T05:52:38.842Z,23.68
2017-02-24T05:53:39.791Z,23.61
2017-02-24T05:54:38.753Z,23.61
2017-02-24T05:55:38.857Z,23.55
2017-02-24T05:56:38.812Z,23.73
2017-02-24T05:57:38.779Z,23.66
2017-02-24T05:58:38.822Z,23.58
2017-02-24T05:59:38.780Z,23.75
2017-02-24T06:00:38.399Z,23.58
2017-02-24T06:01:38.412Z,23.54
2017-02-24T06:02:38.415Z,23.63
2017-02-24T06:03:38.858Z,23.6
2017-02-24T06:04:39.340Z,23.68
2017-02-24T06:05:38.825Z,23.68
2017-02-24T06:06:38.840Z,23.66
2017-02-24T06:07:38.896Z,23.68
2017-02-24T06:08:39.632Z,23.55
2017-02-24T06:09:38.852Z,23.66
2017-02-24T06:10:38.458Z,23.66
2017-02-24T06:11:38.865Z,23.58
2017-02-24T06:12:38.964Z,23.73
2017-02-24T06:13:38.987Z,23.79
2017-02-24T06:14:38.880Z,23.54
2017-02-24T06:15:38.887Z,23.66
2017-02-24T06:16:38.955Z,23.68
2017-02-24T06:17:40.380Z,23.66
2017-02-24T06:18:38.967Z,23.69
2017-02-24T06:19:39.711Z,23.65
2017-02-24T06:20:38.626Z,23.6
2017-02-24T06:21:38.583Z,23.63
2017-02-24T06:22:39.044Z,23.66
2017-02-24T06:23:39.004Z,23.76
2017-02-24T06:24:38.964Z,23.58
2017-02-24T06:25:38.955Z,23.55
2017-02-24T06:26:39.017Z,23.65
2017-02-24T06:27:38.680Z,23.61
2017-02-24T06:28:40.178Z,23.61
2017-02-24T06:29:39.031Z,23.68
2017-02-24T06:30:39.338Z,23.6
2017-02-24T06:31:39.056Z,23.69
2017-02-24T06:32:39.008Z,23.84
2017-02-24T06:33:38.659Z,23.69
2017-02-24T06:34:38.718Z,23.69
2017-02-24T06:35:39.071Z,23.8
2017-02-24T06:36:39.030Z,23.75
2017-02-24T06:37:38.693Z,23.7
2017-02-24T06:38:39.045Z,23.72
2017-02-24T06:39:40.245Z,23.76
2017-02-24T06:40:38.713Z,23.66
2017-02-24T06:41:39.311Z,23.66
2017-02-24T06:42:39.071Z,23.65
2017-02-24T06:43:39.123Z,23.75
2017-02-24T06:44:39.185Z,23.6
2017-02-24T06:45:39.142Z,23.75
2017-02-24T06:46:39.110Z,23.68
2017-02-24T06:47:39.156Z,23.72
2017-02-24T06:48:39.159Z,23.69
2017-02-24T06:49:39.113Z,23.75
2017-02-24T06:50:39.829Z,23.79
2017-02-24T06:51:39.142Z,23.61
2017-02-24T06:52:39.249Z,23.68
2017-02-24T06:53:39.249Z,23.75
2017-02-24T06:54:39.457Z,23.7
2017-02-24T06:55:38.760Z,23.69
2017-02-24T06:56:39.172Z,23.66
2017-02-24T06:57:39.181Z,23.73
2017-02-24T06:58:39.475Z,23.7
2017-02-24T06:59:39.186Z,23.72
2017-02-24T07:00:39.190Z,23.72
2017-02-24T07:01:39.646Z,23.61
2017-02-24T07:02:38.851Z,23.75
2017-02-24T07:03:38.820Z,23.66
2017-02-24T07:04:39.299Z,23.69
2017-02-24T07:05:39.280Z,23.72
2017-02-24T07:06:39.232Z,23.72
2017-02-24T07:07:38.904Z,23.69
2017-02-24T07:08:38.892Z,23.75
2017-02-24T07:09:39.297Z,23.76
2017-02-24T07:10:39.256Z,23.69
2017-02-24T07:11:38.865Z,23.65
2017-02-24T07:12:39.272Z,23.78
2017-02-24T07:13:58.129Z,23.66
2017-02-24T07:14:40.907Z,23.72
2017-02-24T07:15:39.342Z,23.84
2017-02-24T07:16:39.345Z,23.66
2017-02-24T07:17:39.347Z,23.72
2017-02-24T07:18:39.370Z,23.84
2017-02-24T07:19:39.316Z,23.78
2017-02-24T07:20:39.337Z,23.78
2017-02-24T07:21:39.424Z,23.84
2017-02-24T07:22:39.038Z,23.8
2017-02-24T07:23:39.456Z,23.72
2017-02-24T07:24:38.954Z,23.84
2017-02-24T07:25:40.698Z,23.85
2017-02-24T07:26:39.360Z,23.88
2017-02-24T07:27:39.365Z,23.94
2017-02-24T07:28:39.428Z,24
2017-02-24T07:29:39.482Z,24.05
2017-02-24T07:30:39.438Z,24.2
2017-02-24T07:31:39.496Z,24.22
2017-02-24T07:32:39.499Z,24.45
2017-02-24T07:33:39.404Z,24.57
2017-02-24T07:34:39.127Z,24.6
2017-02-24T07:35:39.022Z,24.69
2017-02-24T07:36:40.291Z,24.9
2017-02-24T07:37:39.147Z,24.99
2017-02-24T07:38:39.444Z,25.06
2017-02-24T07:39:39.111Z,25.17
2017-02-24T07:40:39.508Z,25.4
2017-02-24T07:41:39.517Z,25.38
2017-02-24T07:42:39.470Z,25.51
2017-02-24T07:43:56.454Z,25.57
2017-02-24T07:44:39.487Z,25.73
2017-02-24T07:45:40.677Z,25.83
2017-02-24T07:46:39.460Z,25.88
2017-02-24T07:47:40.110Z,25.87
2017-02-24T07:48:39.570Z,25.85
2017-02-24T07:49:39.567Z,26.02
2017-02-24T07:50:39.543Z,26.02
2017-02-24T07:51:39.590Z,26.06
2017-02-24T07:52:39.601Z,26.01
2017-02-24T07:53:39.204Z,26.1
2017-02-24T07:54:39.580Z,26.12
2017-02-24T07:55:39.227Z,26.12
2017-02-24T07:56:40.689Z,26.05
2017-02-24T07:57:39.631Z,26.21
2017-02-24T07:58:40.005Z,26.25
2017-02-24T07:59:39.252Z,26.18
2017-02-24T08:00:39.705Z,26.13
2017-02-24T08:01:39.610Z,26.13
2017-02-24T08:02:39.668Z,26.17
2017-02-24T08:03:39.682Z,26.15
2017-02-24T08:04:39.679Z,26.07
2017-02-24T08:05:39.742Z,26.12
2017-02-24T08:06:39.257Z,26.12
2017-02-24T08:07:40.659Z,26.17
2017-02-24T08:08:39.740Z,26.17
2017-02-24T08:09:39.721Z,26.17
2017-02-24T08:10:38.887Z,26.32
2017-02-24T08:11:39.697Z,26.36
2017-02-24T08:12:39.303Z,26.58
2017-02-24T08:13:39.807Z,26.67
2017-02-24T08:14:39.715Z,26.67
2017-02-24T08:15:39.339Z,26.84
2017-02-24T08:16:39.743Z,26.88
2017-02-24T08:17:39.046Z,26.95
2017-02-24T08:18:40.071Z,26.88
2017-02-24T08:19:39.811Z,27.02
2017-02-24T08:20:39.420Z,27
2017-02-24T08:21:39.840Z,27.02
2017-02-24T08:22:39.854Z,27.07
2017-02-24T08:23:39.800Z,27.1
2017-02-24T08:24:39.877Z,27.07
2017-02-24T08:25:39.876Z,27.04
2017-02-24T08:26:39.540Z,27.07
2017-02-24T08:27:39.865Z,27.09
2017-02-24T08:28:39.950Z,27.21
2017-02-24T08:29:39.867Z,27.27
2017-02-24T08:30:39.889Z,27.24
2017-02-24T08:31:40.905Z,27.37
2017-02-24T08:32:39.560Z,27.41
2017-02-24T08:33:39.906Z,27.44
2017-02-24T08:34:39.971Z,27.47
2017-02-24T08:35:40.037Z,27.59
2017-02-24T08:36:39.954Z,27.55
2017-02-24T08:37:39.570Z,27.5
2017-02-24T08:38:40.024Z,27.55
2017-02-24T08:39:39.587Z,27.66
2017-02-24T08:40:39.697Z,27.7
2017-02-24T08:41:40.058Z,27.84
2017-02-24T08:42:41.174Z,27.79
2017-02-24T08:43:54.546Z,27.4
2017-02-24T08:44:40.146Z,27.28
2017-02-24T08:45:40.102Z,27.09
2017-02-24T08:46:40.116Z,27.34
2017-02-24T08:47:39.735Z,27.62
2017-02-24T08:48:40.136Z,27.84
2017-02-24T08:49:39.758Z,28.09
2017-02-24T08:50:40.205Z,27.85
2017-02-24T08:51:40.166Z,27.47
2017-02-24T08:52:40.184Z,27.74
2017-02-24T08:53:41.103Z,28.07
2017-02-24T08:54:40.196Z,27.96
2017-02-24T08:55:40.156Z,27.77
2017-02-24T08:56:40.240Z,27.55
2017-02-24T08:57:39.883Z,27.43
2017-02-24T08:58:40.254Z,28.12
2017-02-24T08:59:39.403Z,28.96
2017-02-24T09:00:40.213Z,28.71
2017-02-24T09:01:39.832Z,28.15
2017-02-24T09:02:41.557Z,27.84
2017-02-24T09:03:40.246Z,27.5
2017-02-24T09:04:40.770Z,28.02
2017-02-24T09:05:40.316Z,29.24
2017-02-24T09:06:40.339Z,29.79
2017-02-24T09:07:39.983Z,28.52
2017-02-24T09:08:39.997Z,27.74
2017-02-24T09:09:40.313Z,27.39
2017-02-24T09:10:40.031Z,27.19
2017-02-24T09:11:40.332Z,27.12
2017-02-24T09:12:40.353Z,26.99
2017-02-24T09:13:41.260Z,27.18
2017-02-24T09:14:39.559Z,27.24
2017-02-24T09:15:40.412Z,27.29
2017-02-24T09:16:40.378Z,28.51
2017-02-24T09:17:39.991Z,29.6
2017-02-24T09:18:40.441Z,29.97
2017-02-24T09:19:40.004Z,30.61
2017-02-24T09:20:40.074Z,29.8
2017-02-24T09:21:40.496Z,29.02
2017-02-24T09:22:40.551Z,27.97
2017-02-24T09:23:40.454Z,27.46
2017-02-24T09:24:40.926Z,28.12
2017-02-24T09:25:40.514Z,28.27
2017-02-24T09:26:40.139Z,27.94
2017-02-24T09:27:41.539Z,29.24
2017-02-24T09:28:40.561Z,30.05
2017-02-24T09:29:40.540Z,30.38
2017-02-24T09:30:40.519Z,29.48
2017-02-24T09:31:40.608Z,29.51
2017-02-24T09:32:40.654Z,29.95
2017-02-24T09:33:40.631Z,29.24
2017-02-24T09:34:40.626Z,28.85
2017-02-24T09:35:40.857Z,29.39
2017-02-24T09:36:40.642Z,28.67
2017-02-24T09:37:40.609Z,28.54
2017-02-24T09:38:40.664Z,28.3
2017-02-24T09:39:40.626Z,28.02
2017-02-24T09:40:40.680Z,27.5
2017-02-24T09:41:40.254Z,27.09
2017-02-24T09:42:40.679Z,27.06
2017-02-24T09:43:40.868Z,25.64
2017-02-24T09:44:40.337Z,25.64
2017-02-24T09:45:40.741Z,25.14
2017-02-24T09:46:40.699Z,25
2017-02-24T09:47:40.754Z,25.1
2017-02-24T09:48:40.798Z,25.02
2017-02-24T09:49:40.729Z,24.55
2017-02-24T09:50:40.334Z,24.53
2017-02-24T09:51:40.347Z,24.45
2017-02-24T09:52:40.799Z,24.37
2017-02-24T09:53:40.810Z,24.28
2017-02-24T09:54:40.913Z,24.12
2017-02-24T09:55:40.837Z,24.24
2017-02-24T09:56:40.823Z,23.85
2017-02-24T09:57:40.589Z,23.72
2017-02-24T09:58:40.794Z,23.8
2017-02-24T09:59:40.404Z,23.73
2017-02-24T10:00:40.762Z,23.69
2017-02-24T10:01:40.800Z,23.68
2017-02-24T10:02:40.808Z,24.25
2017-02-24T10:03:40.866Z,24.24
2017-02-24T10:04:40.435Z,24.02
2017-02-24T10:05:40.873Z,24.21
2017-02-24T10:06:40.889Z,24.55
2017-02-24T10:07:40.851Z,24.47
2017-02-24T10:08:40.540Z,24.55
2017-02-24T10:09:40.897Z,24.31
2017-02-24T10:10:42.427Z,24.28
2017-02-24T10:11:40.868Z,24.37
2017-02-24T10:12:40.866Z,24.34
2017-02-24T10:13:40.968Z,24.15
2017-02-24T10:14:40.922Z,24.09
2017-02-24T10:15:40.930Z,24.34
2017-02-24T10:16:40.983Z,24.47
2017-02-24T10:17:40.988Z,24.32
2017-02-24T10:18:40.900Z,23.5
2017-02-24T10:19:40.944Z,23.7
2017-02-24T10:20:41.002Z,23.78
2017-02-24T10:21:42.881Z,23.4
2017-02-24T10:22:40.911Z,22.97
2017-02-24T10:23:41.040Z,23.25
2017-02-24T10:24:40.636Z,23.28
2017-02-24T10:25:41.782Z,23.02
2017-02-24T10:26:40.980Z,22.47
2017-02-24T10:27:40.933Z,22.61
2017-02-24T10:28:40.937Z,23.15
2017-02-24T10:29:40.994Z,23.43
2017-02-24T10:30:40.599Z,23.76
2017-02-24T10:31:41.006Z,23.54
2017-02-24T10:32:42.079Z,23.48
2017-02-24T10:33:41.027Z,23.25
2017-02-24T10:34:41.012Z,23.28
2017-02-24T10:35:41.019Z,23.5
2017-02-24T10:36:40.967Z,23.65
2017-02-24T10:37:41.033Z,23.61
2017-02-24T10:38:40.629Z,23.51
2017-02-24T10:39:41.036Z,23.65
2017-02-24T10:40:40.995Z,23.46
2017-02-24T10:41:41.037Z,23.61
2017-02-24T10:42:41.040Z,23.42
2017-02-24T10:43:42.115Z,22.86
2017-02-24T10:44:41.095Z,23.38
2017-02-24T10:45:41.051Z,23.55
2017-02-24T10:46:40.221Z,23.76
2017-02-24T10:47:41.013Z,23.58
2017-02-24T10:48:41.072Z,23.43
2017-02-24T10:49:40.776Z,23.36
2017-02-24T10:50:40.687Z,23.28
2017-02-24T10:51:41.045Z,22.6
2017-02-24T10:52:40.683Z,22.86
2017-02-24T10:53:41.112Z,22.95
2017-02-24T10:54:42.256Z,22.85
2017-02-24T10:55:41.058Z,23.15
2017-02-24T10:56:41.170Z,23.01
2017-02-24T10:57:41.160Z,23.22
2017-02-24T10:58:41.073Z,23.05
2017-02-24T10:59:40.718Z,23.01
2017-02-24T11:00:41.123Z,22.52
2017-02-24T11:01:41.135Z,22.67
2017-02-24T11:02:41.125Z,22.97
2017-02-24T11:03:41.083Z,22.73
2017-02-24T11:04:41.448Z,23.15
2017-02-24T11:05:42.378Z,23.17
2017-02-24T11:06:41.092Z,23.43
2017-02-24T11:07:41.111Z,23.63
2017-02-24T11:08:40.797Z,23.73
2017-02-24T11:09:41.109Z,23.61
2017-02-24T11:10:41.124Z,23.31
2017-02-24T11:11:41.125Z,22.83
2017-02-24T11:12:41.181Z,22.27
2017-02-24T11:13:40.328Z,22.15
2017-02-24T11:14:41.123Z,22.9
2017-02-24T11:15:41.195Z,23.17
2017-02-24T11:16:42.734Z,23.4
2017-02-24T11:17:40.738Z,23.55
2017-02-24T11:18:41.194Z,23.84
2017-02-24T11:19:41.218Z,23.55
2017-02-24T11:20:41.253Z,23.6
2017-02-24T11:21:40.749Z,23.65
2017-02-24T11:22:41.158Z,23.57
2017-02-24T11:23:40.827Z,23.5
2017-02-24T11:24:41.165Z,23.33
2017-02-24T11:25:41.163Z,22.75
2017-02-24T11:26:41.328Z,22.75
2017-02-24T11:27:42.434Z,22.83
2017-02-24T11:28:41.242Z,22.97
2017-02-24T11:29:41.239Z,23.43
2017-02-24T11:30:40.796Z,23.35
2017-02-24T11:31:41.242Z,23.01
2017-02-24T11:32:41.194Z,23.01
2017-02-24T11:33:41.198Z,22.98
2017-02-24T11:34:41.263Z,23.16
2017-02-24T11:35:40.806Z,23.05
2017-02-24T11:36:41.274Z,22.57
2017-02-24T11:37:41.272Z,22.9
2017-02-24T11:38:42.335Z,23.15
2017-02-24T11:39:40.881Z,23.27
2017-02-24T11:40:41.286Z,23.25
2017-02-24T11:41:41.249Z,23.51
2017-02-24T11:42:41.232Z,23.43
2017-02-24T11:43:40.900Z,23.31
2017-02-24T11:44:41.255Z,23.38
2017-02-24T11:45:41.243Z,23.46
2017-02-24T11:46:40.867Z,23.58
2017-02-24T11:47:41.304Z,23.61
2017-02-24T11:48:41.305Z,23.4
2017-02-24T11:49:42.600Z,23.51
2017-02-24T11:50:41.325Z,23.2
2017-02-24T11:51:41.376Z,23.5
2017-02-24T11:52:41.333Z,23.66
2017-02-24T11:53:42.034Z,23.2
2017-02-24T11:54:40.950Z,23.2
2017-02-24T11:55:40.892Z,23.04
2017-02-24T11:56:41.299Z,23.5
2017-02-24T11:57:41.299Z,23.58
2017-02-24T11:58:41.302Z,23.51
2017-02-24T11:59:40.963Z,23.47
2017-02-24T12:00:42.826Z,22.92
2017-02-24T12:01:41.412Z,23.13
2017-02-24T12:02:41.361Z,23.12
2017-02-24T12:03:41.368Z,23.22
2017-02-24T12:04:41.441Z,23.46
2017-02-24T12:05:41.327Z,23.36
2017-02-24T12:06:41.384Z,23.5
2017-02-24T12:07:41.344Z,23.33
2017-02-24T12:08:40.939Z,23.16
2017-02-24T12:09:41.341Z,23.23
2017-02-24T12:10:41.448Z,23.6
2017-02-24T12:11:42.308Z,23.65
2017-02-24T12:12:41.453Z,23.51
2017-02-24T12:13:41.010Z,23.63
2017-02-24T12:14:41.463Z,23.42
2017-02-24T12:15:41.374Z,23.46
2017-02-24T12:16:41.417Z,23.39
2017-02-24T12:17:41.422Z,23.22
2017-02-24T12:18:41.078Z,23.02
2017-02-24T12:19:41.431Z,23
2017-02-24T12:20:41.072Z,22.83
2017-02-24T12:21:41.390Z,22.83
2017-02-24T12:22:42.349Z,22.51
2017-02-24T12:23:41.106Z,22.55
2017-02-24T12:24:41.015Z,22.85
2017-02-24T12:25:41.056Z,22.91
2017-02-24T12:26:41.509Z,23.27
2017-02-24T12:27:41.417Z,22.91
2017-02-24T12:28:41.421Z,22.36
2017-02-24T12:29:41.025Z,23.02
2017-02-24T12:30:41.418Z,23.38
2017-02-24T12:31:41.425Z,23.69
2017-02-24T12:32:41.079Z,23.78
2017-02-24T12:33:42.551Z,23.12
2017-02-24T12:34:41.488Z,23.17
2017-02-24T12:35:41.438Z,22.92
2017-02-24T12:36:41.052Z,23.22
2017-02-24T12:37:41.496Z,23.22
2017-02-24T12:38:41.049Z,23.66
2017-02-24T12:39:41.124Z,23.84
2017-02-24T12:40:40.710Z,23.61
2017-02-24T12:41:41.477Z,23.02
2017-02-24T12:42:41.126Z,23.01
2017-02-24T12:43:41.515Z,22.67
2017-02-24T12:44:42.328Z,22.82
2017-02-24T12:45:41.080Z,22.98
2017-02-24T12:46:41.545Z,22.79
2017-02-24T12:47:41.533Z,23.2
2017-02-24T12:48:41.485Z,23.63
2017-02-24T12:49:41.587Z,23.76
2017-02-24T12:50:41.143Z,23.7
2017-02-24T12:51:41.607Z,23.46
2017-02-24T12:52:41.506Z,23.13
2017-02-24T12:53:41.617Z,23.33
2017-02-24T12:54:41.534Z,23.32
2017-02-24T12:55:42.669Z,23.69
2017-02-24T12:56:41.528Z,23.63
2017-02-24T12:57:41.574Z,22.58
2017-02-24T12:58:41.527Z,22.8
2017-02-24T12:59:41.245Z,23.1